Little Current, Canada
Current Conditions -  °F | °C
As of 2:00 AM on Sunday 23 Nov 2014 (Local Time) from CYZE Reporting Station
Haze Haze  
Wind Chill: 33°   Ceiling: 500
Heat Index: 37°   Visibility: 1mi
Dew Point: 37°   Wind: 6mph
Humidity: 100%   Direction: 220°SW
Pressure: 29.82"   Gusts: NA
Location:  45.97°N, 81.93°W
Report Text: CYZE 230700Z AUTO 22005KT 1SM BR OVC005 03/03 A2982 RMK SLP106
Loading
Personal Weather Stations






























Interactive Weather Map New forecast layout! Learn more

10-Day Weather Forecast

Advertisements
Track Severe Weather on mobile